This is the latest recevied weather packets stored in our database for station/object NW1E. If no packets are shown the sender has not sent any weather packets the latest 10 day(s).
| Time | Temp. | Humidity | Pressure | Rain* | Wind** | Luminosity | Snow |
|---|---|---|---|---|---|---|---|
| 1777763823 | 23.89° C | 91% | 1012.5 hPa | 0 mm | - | 16 W/m² | - |
| 1777762924 | 23.89° C | 91% | 1012.3 hPa | 7.37 mm | - | 41 W/m² | - |
| 1777762622 | 23.89° C | 90% | 1012.2 hPa | 7.37 mm | - | 42 W/m² | - |
| 1777761915 | 23.89° C | 90% | 1012 hPa | 7.37 mm | - | 62 W/m² | - |
| 1777752363 | 31.11° C | 72% | 1010.5 hPa | 0 mm | - | 689 W/m² | - |
| 1777751422 | 30.56° C | 70% | 1010.7 hPa | 0 mm | - | 674 W/m² | - |
| 1777749965 | 31.11° C | 69% | 1010.8 hPa | 0 mm | - | 489 W/m² | - |
| 1777746363 | 31.11° C | 72% | 1011.7 hPa | 0 mm | - | 958 W/m² | - |
| 1777742457 | 31.11° C | 71% | 1011.8 hPa | 0 mm | - | 994 W/m² | - |
| 1777739435 | 31.67° C | 70% | 1011.9 hPa | 0 mm | - | 473 W/m² | - |
| 1777738830 | 31.11° C | 70% | 1011.8 hPa | 0 mm | - | 742 W/m² | - |
| 1777738229 | 31.11° C | 69% | 1011.9 hPa | 0 mm | - | 951 W/m² | - |
| 1777737060 | 30.56° C | 71% | 1011.7 hPa | 0 mm | - | 860 W/m² | - |
| 1777735490 | 31.11° C | 71% | 1011.6 hPa | 0 mm | - | 823 W/m² | - |
| 1777735365 | 31.11° C | 70% | 1011.5 hPa | 0 mm | - | 828 W/m² | - |
| 1777734287 | 30.56° C | 71% | 1011.2 hPa | 0 mm | - | 793 W/m² | - |
| 1777732778 | 30° C | 71% | 1011.2 hPa | 0 mm | - | 695 W/m² | - |
| 1777731577 | 30° C | 73% | 1011 hPa | 0 mm | - | 674 W/m² | - |
| 1777730977 | 30° C | 73% | 1011 hPa | 0 mm | - | 644 W/m² | - |
| 1777728744 | 27.78° C | 80% | 1010.9 hPa | 0 mm | - | 464 W/m² | - |
| 1777728420 | 27.78° C | 81% | 1011 hPa | 0 mm | - | 464 W/m² | - |
| 1777726146 | 25.56° C | 89% | 1010.9 hPa | 0 mm | - | 310 W/m² | - |
| 1777719523 | 20.56° C | 93% | 1010.5 hPa | 0 mm | - | 11 W/m² | - |
| 1777718487 | 20.56° C | 93% | 1010.5 hPa | 0 mm | - | 0 W/m² | - |
| 1777717608 | 20° C | 92% | 1010.8 hPa | 0 mm | - | 0 W/m² | - |
* Rain latest hour (hover to see other rain measurements)
** Current wind speed in m/s (hover to see current wind gust speed)